CST,Max TemperatureF,Mean TemperatureF,Min TemperatureF,Max Dew PointF,MeanDew PointF,Min DewpointF,Max Humidity, Mean Humidity, Min Humidity, Max Sea Level PressureIn, Mean Sea Level PressureIn, Min Sea Level PressureIn, Max VisibilityMiles, Mean VisibilityMiles, Min VisibilityMiles, Max Wind SpeedMPH, Mean Wind SpeedMPH, Max Gust SpeedMPH,PrecipitationIn, CloudCover, Events, WindDirDegrees
2012-12-1,33,30,28,32,30,27,93,91,86,29.95,29.76,29.68,10,2,0,18,7,26,0.00,6,Fog,159
2012-12-2,35,34,32,34,31,30,100,92,87,29.90,29.80,29.63,10,3,0,16,4,23,0.00,6,Fog,154
2012-12-3,44,34,23,43,33,12,93,83,63,29.68,29.51,29.39,10,8,2,23,14,32,0.00,4,Rain,208
2012-12-4,21,14,8,14,8,1,79,72,63,30.33,30.05,29.69,10,10,5,16,12,29,0.00,7,Snow,287
2012-12-5,30,18,6,16,12,3,92,70,55,30.34,30.07,29.71,10,10,7,18,6,29,0.00,1,Snow,150
2012-12-6,35,28,19,28,21,12,93,74,55,29.89,29.72,29.58,10,10,5,17,11,31,0.00,7,Rain,253
2012-12-7,19,17,15,16,11,5,86,72,58,30.01,29.94,29.90,10,10,7,10,5,,0.00,6,Snow,298
2012-12-8,19,14,8,14,9,3,92,76,63,30.01,29.99,29.97,10,9,4,5,2,,0.00,8,,124
2012-12-9,12,9,6,7,5,1,85,82,79,30.05,30.04,30.02,7,4,2,7,4,,0.00,8,,325
2012-12-10,,,,,,,,,,,,,,,,,,,,,,
2012-12-11,,,,,,,,,,,,,,,,,,,,,,
2012-12-12,23,16,8,18,13,3,93,83,73,29.87,29.81,29.75,10,10,10,9,5,,0.00,4,,128
2012-12-13,19,12,6,16,12,3,93,86,73,30.07,29.99,29.87,10,10,10,7,2,,0.00,6,,309
2012-12-14,28,17,6,25,15,1,93,86,74,30.09,29.99,29.83,10,10,10,13,3,18,0.00,2,,132
2012-12-15,32,28,24,30,29,23,93,92,86,29.83,29.64,29.53,10,5,1,8,4,,0.16,5,Rain-Snow,123
2012-12-16,32,24,17,30,19,16,100,93,86,29.71,29.64,29.51,10,7,1,7,3,,0.01,7,Snow,302
2012-12-17,19,16,14,18,15,10,93,90,86,29.70,29.66,29.63,10,9,1,5,1,,0.00,7,,302
2012-12-18,21,18,14,19,15,10,93,88,86,29.72,29.66,29.63,10,10,5,0,0,,0.00,7,Snow,-1
2012-12-19,28,24,19,25,21,18,100,90,80,29.94,29.82,29.72,10,8,2,5,0,,0.00,6,Snow,209
2012-12-20,19,10,1,18,11,-2,93,87,79,30.03,29.96,29.92,10,9,4,6,2,,0.00,5,Snow,315
2012-12-21,8,2,-5,3,-4,-11,85,82,77,30.19,30.12,30.03,10,10,7,5,1,,0.00,0,Snow,312
2012-12-22,14,8,3,9,5,0,92,83,79,30.06,29.99,29.92,10,9,3,10,2,,0.00,4,Snow,313
2012-12-23,10,4,-2,7,0,-8,92,82,73,30.10,30.06,30.01,10,10,5,7,3,,0.00,2,Snow,307
2012-12-24,-2,-6,-11,-8,-11,-17,85,78,71,30.23,30.09,30.01,10,10,7,8,5,,0.00,1,,306
2012-12-25,0,-6,-13,-6,-14,-18,84,77,70,30.38,30.33,30.22,10,10,10,7,3,,0.00,1,,297
2012-12-26,6,-4,-14,1,-9,-18,85,80,71,30.31,30.26,30.21,10,10,3,0,0,,0.00,3,Snow,-1
2012-12-27,15,1,-13,9,-3,-18,92,80,70,30.22,30.17,30.10,10,10,7,0,0,,0.00,5,Snow,-1
2012-12-28,19,11,3,16,6,0,93,86,78,30.11,30.03,29.94,10,7,3,0,0,,0.00,8,Snow,-1
2012-12-29,15,8,0,10,6,-6,92,84,78,30.00,29.94,29.90,10,7,2,6,1,,0.00,8,Snow,296
2012-12-30,17,6,-5,12,3,-11,92,82,73,30.03,29.90,29.78,10,9,4,15,2,24,0.00,4,Snow,183
2012-12-31,10,-2,-13,3,-8,-18,85,76,66,30.14,30.06,29.87,10,10,4,16,8,24,0.00,2,Snow,303